createdAt,value
2019-03-28T00:01:34.731Z,9.03
2019-03-28T00:04:03.326Z,9.53
2019-03-28T00:06:31.963Z,9.10
2019-03-28T00:09:00.628Z,7.53
2019-03-28T00:11:29.282Z,8.60
2019-03-28T00:13:58.209Z,7.13
2019-03-28T00:16:26.810Z,6.43
2019-03-28T00:18:57.457Z,7.83
2019-03-28T00:21:26.288Z,6.57
2019-03-28T00:24:12.796Z,7.57
2019-03-28T00:26:41.525Z,7.07
2019-03-28T00:29:10.111Z,7.40
2019-03-28T00:31:38.742Z,7.10
2019-03-28T00:34:10.233Z,8.73
2019-03-28T00:36:58.106Z,7.53
2019-03-28T00:39:26.718Z,7.90
2019-03-28T00:41:55.370Z,8.40
2019-03-28T00:44:23.938Z,8.80
2019-03-28T00:46:52.526Z,7.97
2019-03-28T00:49:21.117Z,8.77
2019-03-28T00:51:50.371Z,8.13
2019-03-28T00:54:19.173Z,8.30
2019-03-28T00:56:47.934Z,7.47
2019-03-28T00:59:16.526Z,8.07
2019-03-28T01:01:45.161Z,7.20
2019-03-28T01:04:13.886Z,7.40
2019-03-28T01:06:42.506Z,8.17
2019-03-28T01:09:11.220Z,8.70
2019-03-28T01:11:39.846Z,8.70
2019-03-28T01:14:08.495Z,8.63
2019-03-28T01:16:37.186Z,8.30
2019-03-28T01:19:05.836Z,7.53
2019-03-28T01:21:34.418Z,7.70
2019-03-28T01:24:03.075Z,7.23
2019-03-28T01:26:31.614Z,7.27
2019-03-28T01:29:00.318Z,7.97
2019-03-28T01:31:29.394Z,6.97
2019-03-28T01:33:58.055Z,7.33
2019-03-28T01:36:26.703Z,7.37
2019-03-28T01:38:55.326Z,7.77
2019-03-28T01:41:24.071Z,6.87
2019-03-28T01:43:53.018Z,7.10
2019-03-28T01:46:21.651Z,7.37
2019-03-28T01:48:50.331Z,7.87
2019-03-28T01:51:18.883Z,9.03
2019-03-28T01:53:47.628Z,8.07
2019-03-28T01:56:16.262Z,8.63
2019-03-28T01:58:44.937Z,8.87
2019-03-28T02:01:13.783Z,9.43
2019-03-28T02:04:02.170Z,9.10
2019-03-28T02:06:30.958Z,9.23
2019-03-28T02:08:59.559Z,9.37
2019-03-28T02:11:28.197Z,8.27
2019-03-28T02:13:56.860Z,8.77
2019-03-28T02:16:30.847Z,8.77
2019-03-28T02:18:59.510Z,9.33
2019-03-28T02:21:28.057Z,8.77
2019-03-28T02:23:56.575Z,9.00
2019-03-28T02:26:25.138Z,8.07
2019-03-28T02:28:53.793Z,8.67
2019-03-28T02:31:22.410Z,8.07
2019-03-28T02:33:50.994Z,8.70
2019-03-28T02:36:19.598Z,8.50
2019-03-28T02:38:48.195Z,8.83
2019-03-28T02:41:16.745Z,8.20
2019-03-28T02:43:45.585Z,8.87
2019-03-28T02:46:14.565Z,8.03
2019-03-28T02:48:43.543Z,7.90
2019-03-28T02:51:12.088Z,7.90
2019-03-28T02:53:40.658Z,9.03
2019-03-28T02:56:09.244Z,7.93
2019-03-28T02:58:37.823Z,8.80
2019-03-28T03:01:06.529Z,8.93
2019-03-28T03:03:35.539Z,8.70
2019-03-28T03:06:04.277Z,8.40
2019-03-28T03:08:33.590Z,8.60
2019-03-28T03:11:02.353Z,7.53
2019-03-28T03:13:30.893Z,8.63
2019-03-28T03:15:59.487Z,8.07
2019-03-28T03:18:28.224Z,8.77
2019-03-28T03:20:56.815Z,8.17
2019-03-28T03:23:25.524Z,9.57
2019-03-28T03:25:54.135Z,9.63
2019-03-28T03:28:22.759Z,8.50
2019-03-28T03:30:51.377Z,8.87
2019-03-28T03:33:20.010Z,8.47
2019-03-28T03:35:48.537Z,8.80
2019-03-28T03:38:17.174Z,8.27
2019-03-28T03:40:45.776Z,8.53
2019-03-28T03:43:14.444Z,9.27
2019-03-28T03:45:43.120Z,9.03
2019-03-28T03:48:12.067Z,9.80
2019-03-28T03:50:41.013Z,9.10
2019-03-28T03:53:09.697Z,9.17
2019-03-28T03:55:38.383Z,8.70
2019-03-28T03:58:15.249Z,9.17
2019-03-28T04:00:37.429Z,9.10
2019-03-28T04:03:06.086Z,8.90
2019-03-28T04:05:34.872Z,9.83
2019-03-28T04:08:03.606Z,8.60
2019-03-28T04:10:32.168Z,8.30
2019-03-28T04:13:01.216Z,8.17
2019-03-28T04:15:29.859Z,7.90
2019-03-28T04:17:58.648Z,7.20
2019-03-28T04:20:27.273Z,7.60
2019-03-28T04:22:55.882Z,6.60
2019-03-28T04:25:24.689Z,7.43
2019-03-28T04:27:53.482Z,7.67
2019-03-28T04:30:22.729Z,7.63
2019-03-28T04:32:51.724Z,7.97
2019-03-28T04:35:20.617Z,8.33
2019-03-28T04:37:49.232Z,8.47
2019-03-28T04:40:18.005Z,8.60
2019-03-28T04:42:46.741Z,8.20
2019-03-28T04:45:15.460Z,8.67
2019-03-28T04:47:44.208Z,8.30
2019-03-28T04:50:13.147Z,8.60
2019-03-28T04:52:41.780Z,7.70
2019-03-28T04:55:11.230Z,8.17
2019-03-28T04:57:41.240Z,8.23
2019-03-28T05:00:11.393Z,7.57
2019-03-28T05:02:40.023Z,8.53
2019-03-28T05:05:08.799Z,7.90
2019-03-28T05:07:37.631Z,8.47
2019-03-28T05:10:08.819Z,7.27
2019-03-28T05:12:37.400Z,8.27
2019-03-28T05:15:09.156Z,8.17
2019-03-28T05:17:37.782Z,7.83
2019-03-28T05:20:08.021Z,7.93
2019-03-28T05:22:36.824Z,6.80
2019-03-28T05:25:06.490Z,8.27
2019-03-28T05:27:35.137Z,8.53
2019-03-28T05:30:06.659Z,8.53
2019-03-28T05:32:35.707Z,8.13
2019-03-28T05:35:06.764Z,7.60
2019-03-28T05:37:36.413Z,8.83
2019-03-28T05:40:08.883Z,8.40
2019-03-28T05:42:37.468Z,8.37
2019-03-28T05:45:08.011Z,8.10
2019-03-28T05:47:36.632Z,8.30
2019-03-28T05:50:06.875Z,8.00
2019-03-28T05:52:35.460Z,8.70
2019-03-28T05:55:05.540Z,8.57
2019-03-28T05:57:34.413Z,8.40
2019-03-28T06:00:03.278Z,8.70
2019-03-28T06:02:31.895Z,8.30
2019-03-28T06:05:00.939Z,8.50
2019-03-28T06:07:29.948Z,9.33
2019-03-28T06:09:58.522Z,8.57
2019-03-28T06:12:27.096Z,9.50
2019-03-28T06:14:55.727Z,9.10
2019-03-28T06:17:24.319Z,8.83
2019-03-28T06:19:53.019Z,9.23
2019-03-28T06:22:21.619Z,8.50
2019-03-28T06:24:50.423Z,8.27
2019-03-28T06:27:19.021Z,8.07
2019-03-28T06:29:47.708Z,9.47
2019-03-28T06:32:16.720Z,9.20
2019-03-28T06:34:45.355Z,9.17
2019-03-28T06:37:14.028Z,9.57
2019-03-28T06:39:42.613Z,8.63
2019-03-28T06:42:11.463Z,8.77
2019-03-28T06:44:40.214Z,9.00
2019-03-28T06:47:08.870Z,7.77
2019-03-28T06:49:39.087Z,8.37
2019-03-28T06:52:07.803Z,8.93
2019-03-28T06:54:36.716Z,8.70
2019-03-28T06:57:05.392Z,8.27
2019-03-28T06:59:37.511Z,8.60
2019-03-28T07:02:04.596Z,8.63
2019-03-28T07:04:33.258Z,8.70
2019-03-28T07:07:02.553Z,8.47
2019-03-28T07:09:31.190Z,10.13
2019-03-28T07:11:59.752Z,8.43
2019-03-28T07:14:28.586Z,8.97
2019-03-28T07:16:57.232Z,8.90
2019-03-28T07:19:25.817Z,9.30
2019-03-28T07:22:13.860Z,8.80
2019-03-28T07:25:01.755Z,8.50
2019-03-28T07:27:30.484Z,8.77
2019-03-28T07:29:59.067Z,8.70
2019-03-28T07:32:27.992Z,8.17
2019-03-28T07:34:56.564Z,7.53
2019-03-28T07:37:28.256Z,7.93
2019-03-28T07:39:57.095Z,7.77
2019-03-28T07:42:25.849Z,8.13
2019-03-28T07:44:55.913Z,6.90
2019-03-28T07:47:24.718Z,7.17
2019-03-28T07:49:53.788Z,6.57
2019-03-28T07:52:22.380Z,7.53
2019-03-28T07:54:51.106Z,7.67
2019-03-28T07:57:21.440Z,6.70
2019-03-28T08:00:03.275Z,8.07
2019-03-28T08:02:22.435Z,7.07
2019-03-28T08:04:52.396Z,6.63
2019-03-28T08:07:20.967Z,7.03
2019-03-28T08:09:49.756Z,7.37
2019-03-28T08:12:22.851Z,6.03
2019-03-28T08:14:48.839Z,5.87
2019-03-28T08:17:17.506Z,5.67
2019-03-28T08:19:46.249Z,6.17
2019-03-28T08:22:14.969Z,5.50
2019-03-28T08:24:43.868Z,5.80
2019-03-28T08:27:12.477Z,5.50
2019-03-28T08:29:41.039Z,5.13
2019-03-28T08:32:13.563Z,4.17
2019-03-28T08:34:41.885Z,4.70
2019-03-28T08:37:11.650Z,4.77
2019-03-28T08:39:40.607Z,4.23
2019-03-28T08:42:29.479Z,4.13
2019-03-28T08:44:58.085Z,4.10
2019-03-28T08:47:26.802Z,4.37
2019-03-28T08:49:58.635Z,4.33
2019-03-28T08:52:26.536Z,3.73
2019-03-28T08:54:55.144Z,4.10
2019-03-28T08:57:24.025Z,4.70
2019-03-28T08:59:52.697Z,3.93
2019-03-28T09:02:21.435Z,4.30
2019-03-28T09:04:50.349Z,4.53
2019-03-28T09:07:19.094Z,3.90
2019-03-28T09:09:47.794Z,4.20
2019-03-28T09:12:16.508Z,3.80
2019-03-28T09:14:45.448Z,3.80
2019-03-28T09:17:23.822Z,3.83
2019-03-28T09:19:52.051Z,4.27
2019-03-28T09:22:20.678Z,3.60
2019-03-28T09:24:50.466Z,4.20
2019-03-28T09:27:19.104Z,3.67
2019-03-28T09:29:47.847Z,4.10
2019-03-28T09:32:16.625Z,4.67
2019-03-28T09:34:45.239Z,4.90
2019-03-28T09:37:34.765Z,4.27
2019-03-28T09:40:04.110Z,4.60
2019-03-28T09:42:32.803Z,4.30
2019-03-28T09:45:01.500Z,4.10
2019-03-28T09:47:30.398Z,3.73
2019-03-28T09:49:59.523Z,5.03
2019-03-28T09:52:28.355Z,4.07
2019-03-28T09:54:57.165Z,4.40
2019-03-28T09:57:25.803Z,5.20
2019-03-28T09:59:54.519Z,6.03
2019-03-28T10:02:23.499Z,4.43
2019-03-28T10:04:52.137Z,4.50
2019-03-28T10:07:20.837Z,4.00
2019-03-28T10:09:50.125Z,4.93
2019-03-28T10:12:18.924Z,4.37
2019-03-28T10:14:47.608Z,4.27
2019-03-28T10:17:16.472Z,4.27
2019-03-28T10:19:46.661Z,4.83
2019-03-28T10:22:22.342Z,4.47
2019-03-28T10:24:51.230Z,4.73
2019-03-28T10:27:21.538Z,4.60
2019-03-28T10:29:51.286Z,4.50
2019-03-28T10:32:19.960Z,4.27
2019-03-28T10:34:50.117Z,4.77
2019-03-28T10:37:20.316Z,4.33
2019-03-28T10:39:49.504Z,4.50
2019-03-28T10:42:19.039Z,4.77
2019-03-28T10:44:48.323Z,4.03
2019-03-28T10:47:17.041Z,4.53
2019-03-28T10:49:45.983Z,5.63
2019-03-28T10:52:20.058Z,4.43
2019-03-28T10:54:52.966Z,4.63
2019-03-28T10:57:29.990Z,4.80
2019-03-28T10:59:53.161Z,4.10
2019-03-28T11:02:28.746Z,4.13
2019-03-28T11:04:52.698Z,4.67
2019-03-28T11:07:21.352Z,4.47
2019-03-28T11:09:51.509Z,4.20
2019-03-28T11:12:20.568Z,3.47
2019-03-28T11:14:49.189Z,4.07
2019-03-28T11:17:18.125Z,4.10
2019-03-28T11:19:49.227Z,4.40
2019-03-28T11:22:18.041Z,4.30
2019-03-28T11:24:46.844Z,4.33
2019-03-28T11:27:16.904Z,4.10
2019-03-28T11:29:49.321Z,4.10
2019-03-28T11:32:18.783Z,4.33
2019-03-28T11:34:48.726Z,3.67
2019-03-28T11:37:26.032Z,4.00
2019-03-28T11:39:48.064Z,3.40
2019-03-28T11:42:16.861Z,3.60
2019-03-28T11:44:46.028Z,3.40
2019-03-28T11:47:14.710Z,3.53
2019-03-28T11:49:43.395Z,3.13
2019-03-28T11:52:12.039Z,4.10
2019-03-28T11:54:40.844Z,3.90
2019-03-28T11:57:09.796Z,3.47
2019-03-28T11:59:38.792Z,3.00
2019-03-28T12:02:19.669Z,3.10
2019-03-28T12:04:58.967Z,3.33
2019-03-28T12:07:27.600Z,3.17
2019-03-28T12:09:56.259Z,2.70
2019-03-28T12:12:24.991Z,2.70
2019-03-28T12:14:53.747Z,2.20
2019-03-28T12:17:22.700Z,2.87
2019-03-28T12:19:51.344Z,2.50
2019-03-28T12:22:21.880Z,2.40
2019-03-28T12:24:50.858Z,3.50
2019-03-28T12:27:20.412Z,2.90
2019-03-28T12:30:09.589Z,2.30
2019-03-28T12:32:38.376Z,2.40
2019-03-28T12:35:17.572Z,2.47
2019-03-28T12:37:46.537Z,3.00
2019-03-28T12:40:15.972Z,2.90
2019-03-28T12:42:44.688Z,4.23
2019-03-28T12:45:14.466Z,4.10
2019-03-28T12:47:43.466Z,3.97
2019-03-28T12:50:14.504Z,4.17
2019-03-28T12:52:43.417Z,4.23
2019-03-28T12:55:13.963Z,3.50
2019-03-28T12:57:42.675Z,3.73
2019-03-28T13:00:14.959Z,3.87
2019-03-28T13:02:44.132Z,3.60
2019-03-28T13:05:14.048Z,3.77
2019-03-28T13:07:42.710Z,4.07
2019-03-28T13:10:12.567Z,3.30
2019-03-28T13:12:41.399Z,4.00
2019-03-28T13:15:29.354Z,3.70
2019-03-28T13:17:58.135Z,4.13
2019-03-28T13:20:27.284Z,4.13
2019-03-28T13:22:57.892Z,3.43
2019-03-28T13:25:26.852Z,3.90
2019-03-28T13:27:55.594Z,3.13
2019-03-28T13:30:24.504Z,4.07
2019-03-28T13:32:53.124Z,4.10
2019-03-28T13:35:21.939Z,4.20
2019-03-28T13:37:53.013Z,3.93
2019-03-28T13:40:23.836Z,4.40
2019-03-28T13:42:53.119Z,3.90
2019-03-28T13:45:22.707Z,4.00
2019-03-28T13:47:54.150Z,3.73
2019-03-28T13:50:22.049Z,3.47
2019-03-28T13:52:52.487Z,3.67
2019-03-28T13:55:21.444Z,6.67
2019-03-28T13:57:52.459Z,10.00
2019-03-28T14:00:31.586Z,8.27
2019-03-28T14:03:00.491Z,4.80
2019-03-28T14:05:30.816Z,3.73
2019-03-28T14:08:20.900Z,3.30
2019-03-28T14:10:49.396Z,3.53
2019-03-28T14:13:18.255Z,3.33
2019-03-28T14:15:47.280Z,3.07
2019-03-28T14:18:16.079Z,3.10
2019-03-28T14:20:44.926Z,2.90
2019-03-28T14:23:13.583Z,2.30
2019-03-28T14:25:42.569Z,2.30
2019-03-28T14:28:11.340Z,2.23
2019-03-28T14:30:41.084Z,3.07
2019-03-28T14:33:11.681Z,2.57
2019-03-28T14:35:41.105Z,2.60
2019-03-28T14:38:09.915Z,4.37
2019-03-28T14:40:40.266Z,2.83
2019-03-28T14:43:10.936Z,3.00
2019-03-28T14:45:41.256Z,2.53
2019-03-28T14:48:10.056Z,3.37
2019-03-28T14:50:42.133Z,3.90
2019-03-28T14:53:10.567Z,4.03
2019-03-28T14:55:39.730Z,3.77
2019-03-28T14:58:08.834Z,4.40
2019-03-28T15:00:47.279Z,4.73
2019-03-28T15:03:25.695Z,4.57
2019-03-28T15:05:47.532Z,4.90
2019-03-28T15:08:16.611Z,5.37
2019-03-28T15:10:45.708Z,5.80
2019-03-28T15:13:14.824Z,4.90
2019-03-28T15:15:43.527Z,4.17
2019-03-28T15:18:12.265Z,4.20
2019-03-28T15:20:40.931Z,4.20
2019-03-28T15:23:09.868Z,3.70
2019-03-28T15:25:38.480Z,3.40
2019-03-28T15:28:07.214Z,3.93
2019-03-28T15:30:35.892Z,3.60
2019-03-28T15:33:05.156Z,3.27
2019-03-28T15:35:54.002Z,3.57
2019-03-28T15:38:22.575Z,3.00
2019-03-28T15:40:51.363Z,2.97
2019-03-28T15:43:20.107Z,3.43
2019-03-28T15:45:49.049Z,4.80
2019-03-28T15:48:17.858Z,3.30
2019-03-28T15:50:47.621Z,3.47
2019-03-28T15:53:18.231Z,3.57
2019-03-28T15:55:46.755Z,3.10
2019-03-28T15:58:23.267Z,2.77
2019-03-28T16:00:46.506Z,3.10
2019-03-28T16:03:15.282Z,2.77
2019-03-28T16:05:57.219Z,3.07
2019-03-28T16:08:15.019Z,2.50
2019-03-28T16:10:44.002Z,2.83
2019-03-28T16:13:12.884Z,2.77
2019-03-28T16:15:41.590Z,2.70
2019-03-28T16:18:10.304Z,2.33
2019-03-28T16:20:40.762Z,2.63
2019-03-28T16:23:09.367Z,2.53
2019-03-28T16:25:38.162Z,2.47
2019-03-28T16:28:07.274Z,2.10
2019-03-28T16:30:38.111Z,2.50
2019-03-28T16:33:07.542Z,2.73
2019-03-28T16:35:37.035Z,2.57
2019-03-28T16:38:05.735Z,2.70
2019-03-28T16:40:34.445Z,2.80
2019-03-28T16:43:03.137Z,2.57
2019-03-28T16:45:31.917Z,2.83
2019-03-28T16:48:00.564Z,2.50
2019-03-28T16:50:29.372Z,2.23
2019-03-28T16:52:58.118Z,2.60
2019-03-28T16:55:28.074Z,2.67
2019-03-28T16:57:57.110Z,2.40
2019-03-28T17:00:39.826Z,2.50
2019-03-28T17:03:09.469Z,2.33
2019-03-28T17:05:39.518Z,2.93
2019-03-28T17:08:08.546Z,2.93
2019-03-28T17:10:49.681Z,2.63
2019-03-28T17:13:18.654Z,2.60
2019-03-28T17:15:47.815Z,3.00
2019-03-28T17:18:36.308Z,2.30
2019-03-28T17:21:05.069Z,3.40
2019-03-28T17:23:34.340Z,2.60
2019-03-28T17:26:03.176Z,2.50
2019-03-28T17:28:31.968Z,2.67
2019-03-28T17:31:00.756Z,2.30
2019-03-28T17:33:29.712Z,2.53
2019-03-28T17:35:58.636Z,3.00
2019-03-28T17:38:27.300Z,2.50
2019-03-28T17:40:56.075Z,3.03
2019-03-28T17:43:25.617Z,2.70
2019-03-28T17:45:54.368Z,2.80
2019-03-28T17:48:23.298Z,2.73
2019-03-28T17:50:53.097Z,2.80
2019-03-28T17:53:24.664Z,2.80
2019-03-28T17:55:58.447Z,2.80
2019-03-28T17:58:28.043Z,3.03
2019-03-28T18:00:57.867Z,2.93
2019-03-28T18:03:31.594Z,2.90
2019-03-28T18:05:58.586Z,3.20
2019-03-28T18:08:27.502Z,3.43
2019-03-28T18:10:56.302Z,2.97
2019-03-28T18:13:24.945Z,2.80
2019-03-28T18:15:53.636Z,2.93
2019-03-28T18:18:22.517Z,3.27
2019-03-28T18:20:51.892Z,2.97
2019-03-28T18:23:22.218Z,2.67
2019-03-28T18:25:51.102Z,2.83
2019-03-28T18:28:21.563Z,2.60
2019-03-28T18:30:50.345Z,3.17
2019-03-28T18:33:19.069Z,3.10
2019-03-28T18:35:47.998Z,3.20
2019-03-28T18:38:16.759Z,3.17
2019-03-28T18:40:46.724Z,3.20
2019-03-28T18:43:15.467Z,3.53
2019-03-28T18:45:44.155Z,3.43
2019-03-28T18:48:26.912Z,3.57
2019-03-28T18:50:43.194Z,3.40
2019-03-28T18:53:12.188Z,3.80
2019-03-28T18:55:42.029Z,4.00
2019-03-28T18:58:11.112Z,4.07
2019-03-28T19:00:40.458Z,4.87
2019-03-28T19:03:09.075Z,4.23
2019-03-28T19:05:39.433Z,4.40
2019-03-28T19:08:08.368Z,4.83
2019-03-28T19:10:37.743Z,4.50
2019-03-28T19:13:06.499Z,4.50
2019-03-28T19:15:35.352Z,4.67
2019-03-28T19:18:04.100Z,4.00
2019-03-28T19:20:33.441Z,4.50
2019-03-28T19:23:02.256Z,3.73
2019-03-28T19:25:31.114Z,4.20
2019-03-28T19:28:00.113Z,4.10
2019-03-28T19:30:33.591Z,4.53
2019-03-28T19:33:02.844Z,5.33
2019-03-28T19:35:51.314Z,4.97
2019-03-28T19:38:20.087Z,4.30
2019-03-28T19:40:48.811Z,4.77
2019-03-28T19:43:20.721Z,4.70
2019-03-28T19:45:48.260Z,5.27
2019-03-28T19:48:18.854Z,5.27
2019-03-28T19:50:48.998Z,4.63
2019-03-28T19:53:19.362Z,5.10
2019-03-28T19:55:48.141Z,4.97
2019-03-28T19:58:18.555Z,4.73
2019-03-28T20:00:47.239Z,4.70
2019-03-28T20:03:16.235Z,5.23
2019-03-28T20:05:47.911Z,4.77
2019-03-28T20:08:18.383Z,4.70
2019-03-28T20:10:47.771Z,5.47
2019-03-28T20:13:16.404Z,5.47
2019-03-28T20:15:45.322Z,5.97
2019-03-28T20:18:13.986Z,5.67
2019-03-28T20:20:42.698Z,5.13
2019-03-28T20:23:30.688Z,5.57
2019-03-28T20:25:59.505Z,5.80
2019-03-28T20:28:28.176Z,5.30
2019-03-28T20:30:56.995Z,5.30
2019-03-28T20:33:25.678Z,5.97
2019-03-28T20:36:11.772Z,5.03
2019-03-28T20:38:26.183Z,5.77
2019-03-28T20:40:58.243Z,5.80
2019-03-28T20:43:25.226Z,5.60
2019-03-28T20:45:53.864Z,5.73
2019-03-28T20:48:22.681Z,5.63
2019-03-28T20:50:51.284Z,5.60
2019-03-28T20:53:19.946Z,5.70
2019-03-28T20:55:48.731Z,5.33
2019-03-28T20:58:36.713Z,5.40
2019-03-28T21:01:05.667Z,5.70
2019-03-28T21:03:34.798Z,5.30
2019-03-28T21:06:14.675Z,5.73
2019-03-28T21:08:34.241Z,5.87
2019-03-28T21:11:03.076Z,6.03
2019-03-28T21:13:31.760Z,5.90
2019-03-28T21:16:20.018Z,6.20
2019-03-28T21:18:48.790Z,5.77
2019-03-28T21:21:18.474Z,6.47
2019-03-28T21:23:47.024Z,6.40
2019-03-28T21:26:15.762Z,5.70
2019-03-28T21:28:47.519Z,6.33
2019-03-28T21:31:15.759Z,5.53
2019-03-28T21:33:44.728Z,6.40
2019-03-28T21:36:13.279Z,5.90
2019-03-28T21:38:42.279Z,5.73
2019-03-28T21:41:11.710Z,7.10
2019-03-28T21:43:40.398Z,6.60
2019-03-28T21:46:08.957Z,7.00
2019-03-28T21:48:37.689Z,6.80
2019-03-28T21:51:06.457Z,6.37
2019-03-28T21:53:35.056Z,6.90
2019-03-28T21:56:03.697Z,7.17
2019-03-28T21:58:32.351Z,7.00
2019-03-28T22:01:01.087Z,7.73
2019-03-28T22:03:29.670Z,6.50
2019-03-28T22:05:58.321Z,6.13
2019-03-28T22:08:26.989Z,7.27
2019-03-28T22:10:55.746Z,6.70
2019-03-28T22:13:24.296Z,7.57
2019-03-28T22:15:52.917Z,6.23
2019-03-28T22:18:21.605Z,6.63
2019-03-28T22:20:50.183Z,6.80
2019-03-28T22:23:19.044Z,7.10
2019-03-28T22:25:47.611Z,7.73
2019-03-28T22:28:16.207Z,7.23
2019-03-28T22:30:44.970Z,7.50
2019-03-28T22:33:13.610Z,6.63
2019-03-28T22:35:43.567Z,7.10
2019-03-28T22:38:12.388Z,8.50
2019-03-28T22:40:43.667Z,6.90
2019-03-28T22:43:11.616Z,7.27
2019-03-28T22:45:40.261Z,7.40
2019-03-28T22:48:11.092Z,7.53
2019-03-28T22:50:39.195Z,7.23
2019-03-28T22:53:11.093Z,6.83
2019-03-28T22:55:39.781Z,7.37
2019-03-28T22:58:08.403Z,7.13
2019-03-28T23:00:47.421Z,7.80
2019-03-28T23:03:18.742Z,6.60
2019-03-28T23:05:47.544Z,6.57
2019-03-28T23:08:16.473Z,7.63
2019-03-28T23:10:45.075Z,7.37
2019-03-28T23:13:14.690Z,6.90
2019-03-28T23:15:43.448Z,7.80
2019-03-28T23:18:12.010Z,8.20
2019-03-28T23:20:40.571Z,7.13
2019-03-28T23:23:09.163Z,6.57
2019-03-28T23:25:37.829Z,6.70
2019-03-28T23:28:06.488Z,6.37
2019-03-28T23:30:35.152Z,6.80
2019-03-28T23:33:04.895Z,7.73
2019-03-28T23:35:33.702Z,6.87
2019-03-28T23:38:02.323Z,7.30
2019-03-28T23:40:30.871Z,7.23
2019-03-28T23:42:59.541Z,7.97
2019-03-28T23:45:28.116Z,7.57
2019-03-28T23:47:56.707Z,7.37
2019-03-28T23:50:25.277Z,8.70
2019-03-28T23:52:53.970Z,8.67
2019-03-28T23:55:22.559Z,8.37
2019-03-28T23:57:51.228Z,8.43
